Terminal Aerodrome Forecast
Issued by NWS

Home | Current Version | Previous Version | Text Only | Print | Product List | Glossary On
Versions: 1 2 3 4 5 6 7 8 9 10 11 12 13 14 15 16
789
FTUS41 KBGM 232320
TAFRME
TAF
KRME 232320Z 2400/2424 23005KT P6SM OVC040
      TEMPO 2409/2412 OVC025
     FM241400 20008KT P6SM BKN050
     FM241900 17005KT P6SM SCT150=

USA.gov is the U.S. government's official web portal to all federal, state and local government web resources and services.